Flight Track Log - Related Links

Times and Time Zones

All times are in EDT time to prevent confusion due to time zone crossing. See the UAL3740 flight status page for this flight to view local times or setup timezone preferences in your user account.

Time Position Orientation Groundspeed Altitude Reporting Facility
EDT Latitude Longitude Course Direction KTS MPH feet Rate Location/Type
Wed 10:16:01 AM 41.7853 -71.4406 342° North 168 193 3,000  Level Boston Center
Wed 10:17:02 AM 41.8236 -71.5181 304° West 220 253 6,000 2,777 Climbing Boston Center
Wed 10:18:02 AM 41.8511 -71.5872 298° West 237 273 8,600 2,430 Climbing Boston Center
Wed 10:19:03 AM 41.8767 -71.6733 292° West 249 287 10,900 2,083 Climbing Boston Center
Wed 10:20:03 AM 41.8858 -71.7931 276° West 285 328 12,800 2,136 Climbing Boston Center
Wed 10:21:01 AM 41.8906 -71.9158 273° West 323 372 15,100 2,186 Climbing Boston Center
Wed 10:22:01 AM 41.8975 -72.0328 275° West 328 377 17,100 1,759 Climbing Boston Center
Wed 10:23:14 AM 41.9042 -72.1556 274° West 328 377 19,000 1,669 Climbing Boston Center
Wed 10:24:14 AM 41.9125 -72.2922 275° West 328 377 20,800 1,700 Climbing Boston Center
Wed 10:25:14 AM 41.9211 -72.4233 275° West 339 390 22,400 1,438 Climbing Boston Center
Wed 10:26:15 AM 41.9272 -72.5544 274° West 350 403 23,700 1,339 Climbing Boston Center
Wed 10:27:15 AM 41.9353 -72.6883 275° West 356 410 25,100 1,339 Climbing Boston Center
Wed 10:28:16 AM 41.9453 -72.8253 276° West 367 422 26,400 1,373 Climbing Boston Center
Wed 10:29:13 AM 41.9117 -72.9533 251° West 372 428 27,800 1,231 Climbing Boston Center
Wed 10:30:13 AM 41.8400 -73.0811 233° Southwest 387 445 28,800 1,339 Climbing Boston Center
Wed 10:31:14 AM 41.7728 -73.1917 231° Southwest 387 445 30,500 1,426 Climbing Boston Center
Wed 10:32:15 AM 41.7031 -73.3019 230° Southwest 392 451 31,700 584 Climbing Boston Center
Wed 10:33:48 AM 41.5947 -73.4842 232° Southwest 393 452 32,000 118 Climbing New York Center
Wed 10:34:47 AM 41.5233 -73.6003 231° Southwest 399 459 32,000  Level New York Center
Wed 10:35:47 AM 41.4519 -73.7161 231° Southwest 405 466 32,000  Level New York Center
Wed 10:36:47 AM 41.3800 -73.8347 231° Southwest 411 473 32,000  Level New York Center
Wed 10:37:49 AM 41.3061 -73.9583 232° Southwest 418 481 32,000  Level New York Center
Wed 10:38:46 AM 41.2319 -74.0761 230° Southwest 418 481 32,000  Level New York Center
Wed 10:39:46 AM 41.1578 -74.1964 231° Southwest 418 481 32,000 -298 Level New York Center
Wed 10:40:47 AM 41.0792 -74.3136 228° Southwest 418 481 31,400 -836 Descending New York Center
Wed 10:41:48 AM 41.0028 -74.4333 230° Southwest 423 487 30,300 -1,008 Descending New York Center
Wed 10:42:46 AM 40.9303 -74.5503 231° Southwest 423 487 29,400 -966 Descending New York Center
Wed 10:43:46 AM 40.8803 -74.6819 243° Southwest 408 470 28,400 -694 Descending New York Center
Wed 10:44:47 AM 40.8383 -74.8111 247° West 397 457 28,000 -197 Descending New York Center
Wed 10:45:48 AM 40.7939 -74.9483 247° West 397 457 28,000  Level New York Center
Wed 10:46:46 AM 40.7517 -75.0828 248° West 402 463 28,000 -655 Level New York Center
Wed 10:47:47 AM 40.7133 -75.2144 249° West 402 463 26,700 -1,623 Descending New York Center
Wed 10:48:48 AM 40.6708 -75.3458 247° West 402 463 24,700 -1,934 Descending New York Center
Wed 10:49:48 AM 40.6200 -75.4708 242° Southwest 402 463 22,800 -1,983 Descending New York Center
Wed 10:50:46 AM 40.5692 -75.5986 242° Southwest 402 463 20,800 -1,400 Descending New York Center
Wed 10:51:48 AM 40.4978 -75.7083 229° Southwest 396 456 20,000 -393 Descending New York Center
Wed 10:52:48 AM 40.4286 -75.8178 230° Southwest 396 456 20,000  Level New York Center
Wed 10:53:48 AM 40.3619 -75.9164 228° Southwest 410 472 20,000  Level New York Center
Wed 10:54:47 AM 40.2881 -76.0308 230° Southwest 415 478 20,000  Level New York Center
Wed 10:55:48 AM 40.2161 -76.1450 230° Southwest 415 478 20,000 -793 Level New York Center
Wed 10:56:48 AM 40.1422 -76.2558 229° Southwest 415 478 18,400 -1,516 Descending New York Center
Wed 10:58:54 AM 40.0167 -76.5333 239° Southwest 395 455 15,300 -1,091 Descending Potomac TRACON
Wed 10:59:55 AM 39.9500 -76.6500 233° Southwest 387 445 15,000 -149 Descending Potomac TRACON
Wed 11:00:55 AM 39.9000 -76.7667 241° Southwest 388 447 15,000 52 Level Potomac TRACON
Wed 11:01:50 AM 39.8500 -76.8833 241° Southwest 386 444 15,100 -209 Climbing Potomac TRACON
Wed 11:02:50 AM 39.8000 -77.0000 241° Southwest 385 443 14,600 -1,300 Descending Potomac TRACON
Wed 11:03:50 AM 39.7333 -77.1167 233° Southwest 378 435 12,500 -1,983 Descending Potomac TRACON
Wed 11:04:51 AM 39.6833 -77.2167 237° Southwest 368 423 10,600 -1,289 Descending Potomac TRACON
Wed 11:05:51 AM 39.6333 -77.3167 237° Southwest 313 360 9,900 -700 Descending Potomac TRACON
Wed 11:06:51 AM 39.5667 -77.3500 201° Southwest 295 339 9,200 -900 Descending Potomac TRACON
Wed 11:07:51 AM 39.4833 -77.3500 180° South 289 333 8,100 -1,096 Descending Potomac TRACON
Wed 11:08:46 AM 39.4000 -77.3667 189° South 290 334 7,100 -1,091 Descending Potomac TRACON
Wed 11:09:52 AM 39.3167 -77.3667 180° South 288 331 5,900 -1,048 Descending Potomac TRACON
Wed 11:10:52 AM 39.2500 -77.3667 180° South 269 310 4,900 -900 Descending Potomac TRACON
Wed 11:11:52 AM 39.1667 -77.3667 180° South 267 307 4,100 -397 Descending Potomac TRACON
Wed 11:12:53 AM 39.1000 -77.3500 169° South 273 314 4,100 -99 Level Potomac TRACON
Wed 11:13:53 AM 39.0167 -77.3500 180° South 271 312 3,900 -500 Descending Potomac TRACON
Wed 11:14:53 AM 38.9500 -77.3500 180° South 262 302 3,100 -400 Descending Potomac TRACON
Wed 11:15:53 AM 38.8833 -77.3500 180° South 241 277 3,100 -450 Level Potomac TRACON
Wed 11:16:53 AM 38.8167 -77.3667 191° South 245 282 2,200 -550 Descending Potomac TRACON
Wed 11:17:53 AM 38.7833 -77.4167 229° Southwest 209 241 2,000 -50 Descending Potomac TRACON
Wed 11:18:53 AM 38.8167 -77.4333 339° North 188 216 2,100 -211 Climbing Potomac TRACON
Wed 11:19:47 AM 38.8667 -77.4333 360° North 143 165 1,600 -650 Descending Potomac TRACON
Wed 11:20:53 AM 38.9000 -77.4333 360° North 136 157 800 -727 Descending Potomac TRACON
Wed 11:22:00 AM 38.9333 -77.4500 349° North  Level FlightAware Approximate

Login

Don't have an account? Register now (free) for customized features, flight alerts, and more!